Time;durP1;ratioP1;P1;durP2;ratioP2;P2;SDS_P1;SDS_P2;PMS_P1;PMS_P2;Temp;Humidity;BMP_temperature;BMP_pressure;BME280_temperature;BME280_humidity;BME280_pressure;Samples;Min_cycle;Max_cycle;Signal;HPM_P1;HPM_P2
2022/04/16 00:00:01;;;;;;;21.65;8.52;;;;;;;;;;4974383;28;20379;-48
2022/04/16 00:02:29;;;;;;;16.77;8.77;;;;;;;;;;4974944;28;20021;-52
2022/04/16 00:04:57;;;;;;;24.10;9.13;;;;;;;;;;4974314;28;20026;-52
2022/04/16 00:07:23;;;;;;;17.80;8.88;;;;;;;;;;4974918;28;20045;-50
2022/04/16 00:09:49;;;;;;;15.65;8.13;;;;;;;;;;4974546;28;20056;-48
2022/04/16 00:12:15;;;;;;;17.67;8.15;;;;;;;;;;4974509;28;20026;-50
2022/04/16 00:14:42;;;;;;;23.30;9.02;;;;;;;;;;4974826;28;20074;-52
2022/04/16 00:17:08;;;;;;;17.10;8.00;;;;;;;;;;4974717;28;20026;-52
2022/04/16 00:19:35;;;;;;;22.85;9.05;;;;;;;;;;4974930;28;20034;-50
2022/04/16 00:22:01;;;;;;;21.23;9.65;;;;;;;;;;4974474;28;20085;-49
2022/04/16 00:24:28;;;;;;;24.40;11.20;;;;;;;;;;4976396;28;20077;-48
2022/04/16 00:26:54;;;;;;;24.30;11.70;;;;;;;;;;4978622;28;20054;-50
2022/04/16 00:29:20;;;;;;;30.70;10.88;;;;;;;;;;4978261;28;20035;-53
2022/04/16 00:31:47;;;;;;;25.48;10.43;;;;;;;;;;4978298;28;20026;-50
2022/04/16 00:34:14;;;;;;;21.40;9.90;;;;;;;;;;4978466;28;20138;-50
2022/04/16 00:36:44;;;;;;;20.50;9.43;;;;;;;;;;4978166;28;20026;-49
2022/04/16 00:39:10;;;;;;;21.13;10.55;;;;;;;;;;4977884;28;20050;-52
2022/04/16 00:41:39;;;;;;;19.33;9.57;;;;;;;;;;4978345;28;20023;-53
2022/04/16 00:44:05;;;;;;;15.45;8.32;;;;;;;;;;4978189;28;20027;-52
2022/04/16 00:46:31;;;;;;;17.95;8.27;;;;;;;;;;4977300;28;20380;-47
2022/04/16 00:48:57;;;;;;;19.05;9.43;;;;;;;;;;4977926;28;20090;-49
2022/04/16 00:51:24;;;;;;;22.55;9.50;;;;;;;;;;4977910;28;20023;-50
2022/04/16 00:53:50;;;;;;;13.60;7.63;;;;;;;;;;4978054;28;20022;-50
2022/04/16 00:56:16;;;;;;;23.23;8.68;;;;;;;;;;4978189;28;20467;-50
2022/04/16 00:58:42;;;;;;;20.63;8.90;;;;;;;;;;4977887;28;20023;-51
2022/04/16 01:01:09;;;;;;;16.48;8.40;;;;;;;;;;4978006;28;20092;-50
2022/04/16 01:03:35;;;;;;;20.65;8.55;;;;;;;;;;4978033;28;20368;-48
2022/04/16 01:06:02;;;;;;;20.23;8.57;;;;;;;;;;4977408;28;20056;-50
2022/04/16 01:08:28;;;;;;;16.80;8.15;;;;;;;;;;4978080;28;20437;-51
2022/04/16 01:10:54;;;;;;;14.82;7.70;;;;;;;;;;4977613;28;20019;-49
2022/04/16 01:13:21;;;;;;;20.98;7.75;;;;;;;;;;4977715;28;20114;-49
2022/04/16 01:15:47;;;;;;;17.27;7.30;;;;;;;;;;4977806;28;20106;-53
2022/04/16 01:18:13;;;;;;;14.60;6.97;;;;;;;;;;4977501;28;20044;-54
2022/04/16 01:20:41;;;;;;;16.85;7.05;;;;;;;;;;4977332;28;20105;-50
2022/04/16 01:23:07;;;;;;;22.05;6.28;;;;;;;;;;4977657;28;20030;-47
2022/04/16 01:25:35;;;;;;;14.88;6.60;;;;;;;;;;4977871;28;20105;-48
2022/04/16 01:28:01;;;;;;;12.82;6.82;;;;;;;;;;4976837;28;20041;-51
2022/04/16 01:30:28;;;;;;;18.60;7.28;;;;;;;;;;4977570;28;20082;-53
2022/04/16 01:32:54;;;;;;;13.75;6.88;;;;;;;;;;4977807;28;20027;-51
2022/04/16 01:35:21;;;;;;;18.50;7.60;;;;;;;;;;4977007;28;20129;-49
2022/04/16 01:37:47;;;;;;;14.23;6.60;;;;;;;;;;4977428;28;20023;-48
2022/04/16 01:40:14;;;;;;;12.50;6.85;;;;;;;;;;4977228;28;20484;-47
2022/04/16 01:42:41;;;;;;;14.90;6.97;;;;;;;;;;4976796;28;20472;-49
2022/04/16 01:45:10;;;;;;;16.35;7.50;;;;;;;;;;4976938;28;20019;-51
2022/04/16 01:47:39;;;;;;;21.33;7.05;;;;;;;;;;4976733;28;20053;-48
2022/04/16 01:50:07;;;;;;;13.88;6.75;;;;;;;;;;4976848;28;20023;-51
2022/04/16 01:52:33;;;;;;;12.32;7.03;;;;;;;;;;4977188;28;20031;-52
2022/04/16 01:54:59;;;;;;;22.55;6.82;;;;;;;;;;4976778;28;20049;-52
2022/04/16 01:57:26;;;;;;;16.10;6.65;;;;;;;;;;4977056;28;20034;-49
2022/04/16 01:59:52;;;;;;;19.42;6.45;;;;;;;;;;4976944;28;20042;-51
2022/04/16 02:02:19;;;;;;;16.98;6.80;;;;;;;;;;4976418;28;20034;-46
2022/04/16 02:04:45;;;;;;;17.45;6.95;;;;;;;;;;4976576;28;20493;-50
2022/04/16 02:07:12;;;;;;;15.38;7.22;;;;;;;;;;4976605;28;20476;-51
2022/04/16 02:09:38;;;;;;;12.13;6.55;;;;;;;;;;4976441;28;20033;-52
2022/04/16 02:12:04;;;;;;;11.85;6.63;;;;;;;;;;4976805;28;20097;-50
2022/04/16 02:14:31;;;;;;;18.48;7.05;;;;;;;;;;4976801;28;20081;-54
2022/04/16 02:17:00;;;;;;;11.15;6.78;;;;;;;;;;4976141;28;20031;-51
2022/04/16 02:19:27;;;;;;;17.10;6.10;;;;;;;;;;4976288;28;20035;-51
2022/04/16 02:21:54;;;;;;;18.35;5.97;;;;;;;;;;4976613;28;20023;-49
2022/04/16 02:24:20;;;;;;;15.15;6.15;;;;;;;;;;4976513;28;20031;-49
2022/04/16 02:26:46;;;;;;;15.82;5.50;;;;;;;;;;4976536;28;20034;-52
2022/04/16 02:29:16;;;;;;;11.93;5.70;;;;;;;;;;4976343;28;20031;-49
2022/04/16 02:31:44;;;;;;;14.07;5.82;;;;;;;;;;4976366;28;20115;-50
2022/04/16 02:34:11;;;;;;;9.38;5.75;;;;;;;;;;4976750;28;20027;-50
2022/04/16 02:36:37;;;;;;;10.82;5.70;;;;;;;;;;4975795;28;20027;-51
2022/04/16 02:39:04;;;;;;;16.00;7.97;;;;;;;;;;4975951;28;20502;-50
2022/04/16 02:41:30;;;;;;;9.63;5.70;;;;;;;;;;4976226;28;20102;-48
2022/04/16 02:43:58;;;;;;;14.35;5.53;;;;;;;;;;4975896;28;20081;-50
2022/04/16 02:49:10;;;;;;;12.25;4.90;;;;;;;;;;4975509;28;20138;-52
2022/04/16 02:51:38;;;;;;;9.85;4.30;;;;;;;;;;4975662;28;20027;-53
2022/04/16 02:54:05;;;;;;;11.10;3.80;;;;;;;;;;4975947;28;20031;-50
2022/04/16 02:56:32;;;;;;;7.88;3.83;;;;;;;;;;4975863;28;20034;-49
2022/04/16 02:58:58;;;;;;;13.75;4.10;;;;;;;;;;4975594;28;20090;-49
2022/04/16 03:01:24;;;;;;;8.73;3.80;;;;;;;;;;4975586;28;20550;-49
2022/04/16 03:03:50;;;;;;;9.27;3.75;;;;;;;;;;4975554;28;20031;-52
2022/04/16 03:06:16;;;;;;;13.52;3.90;;;;;;;;;;4975426;28;20034;-51
2022/04/16 03:08:56;;;;;;;6.60;3.78;;;;;;;;;;4975633;28;20467;-55
2022/04/16 03:11:33;;;;;;;8.98;4.10;;;;;;;;;;4973860;28;20027;-52
2022/04/16 03:20:06;;;;;;;8.10;3.90;;;;;;;;;;4973978;28;20037;-53
2022/04/16 03:22:39;;;;;;;7.50;3.90;;;;;;;;;;4974904;28;20383;-49
2022/04/16 03:25:07;;;;;;;11.82;4.35;;;;;;;;;;4975350;28;20023;-53
2022/04/16 03:27:33;;;;;;;8.88;4.38;;;;;;;;;;4974957;28;20019;-53
2022/04/16 03:29:59;;;;;;;11.63;4.20;;;;;;;;;;4975085;28;20023;-49
2022/04/16 03:32:26;;;;;;;9.60;4.70;;;;;;;;;;4974943;28;20045;-49
2022/04/16 03:34:52;;;;;;;10.85;5.05;;;;;;;;;;4974798;28;20019;-54
2022/04/16 03:37:18;;;;;;;8.57;4.40;;;;;;;;;;4974940;28;20022;-48
2022/04/16 03:39:44;;;;;;;12.38;4.60;;;;;;;;;;4974832;28;20037;-51
2022/04/16 03:42:11;;;;;;;9.25;4.07;;;;;;;;;;4974989;28;20038;-54
2022/04/16 03:44:37;;;;;;;9.50;4.90;;;;;;;;;;4975209;28;20034;-47
2022/04/16 03:47:04;;;;;;;8.65;4.00;;;;;;;;;;4974244;28;20023;-56
2022/04/16 03:49:30;;;;;;;10.50;3.67;;;;;;;;;;4975019;28;20033;-51
2022/04/16 03:51:56;;;;;;;10.55;4.22;;;;;;;;;;4975305;28;20085;-50
2022/04/16 04:00:03;;;;;;;12.65;4.55;;;;;;;;;;4974134;28;20368;-49
2022/04/16 04:02:29;;;;;;;11.02;5.30;;;;;;;;;;4974358;28;20019;-47
2022/04/16 04:04:58;;;;;;;12.13;5.03;;;;;;;;;;4974621;28;20031;-48
2022/04/16 04:07:25;;;;;;;10.88;5.35;;;;;;;;;;4974789;28;20027;-51
2022/04/16 04:09:51;;;;;;;13.55;5.80;;;;;;;;;;4974373;28;20047;-54
2022/04/16 04:12:18;;;;;;;10.75;5.70;;;;;;;;;;4974446;28;20058;-51
2022/04/16 04:14:47;;;;;;;12.02;5.43;;;;;;;;;;4974146;28;20375;-52
2022/04/16 04:17:14;;;;;;;13.68;6.38;;;;;;;;;;4974895;28;20031;-51
2022/04/16 04:19:44;;;;;;;10.88;6.55;;;;;;;;;;4974730;28;20030;-54
2022/04/16 04:22:11;;;;;;;17.07;6.50;;;;;;;;;;4974526;28;20034;-52
2022/04/16 04:24:39;;;;;;;17.02;6.88;;;;;;;;;;4974648;28;20031;-52
2022/04/16 04:27:07;;;;;;;14.43;6.47;;;;;;;;;;4974425;28;20019;-52
2022/04/16 04:29:33;;;;;;;13.73;7.22;;;;;;;;;;4974043;28;20042;-52
2022/04/16 04:32:00;;;;;;;14.80;6.18;;;;;;;;;;4974193;28;20038;-53
2022/04/16 04:34:26;;;;;;;16.50;7.85;;;;;;;;;;4974269;28;20026;-54
2022/04/16 04:36:52;;;;;;;19.20;8.05;;;;;;;;;;4974253;28;20050;-51
2022/04/16 04:39:18;;;;;;;20.85;8.23;;;;;;;;;;4973962;28;20023;-49
2022/04/16 04:41:45;;;;;;;12.13;7.78;;;;;;;;;;4973279;28;20019;-51
2022/04/16 04:44:14;;;;;;;16.70;7.10;;;;;;;;;;4974180;28;20035;-50
2022/04/16 04:46:41;;;;;;;13.43;6.65;;;;;;;;;;4974540;28;20102;-51
2022/04/16 04:49:08;;;;;;;10.75;6.15;;;;;;;;;;4974044;28;20162;-51
2022/04/16 04:51:36;;;;;;;13.93;6.10;;;;;;;;;;4974167;28;20527;-49
2022/04/16 04:54:07;;;;;;;10.48;5.55;;;;;;;;;;4974669;28;20077;-50
2022/04/16 04:56:33;;;;;;;11.15;5.88;;;;;;;;;;4974298;28;20162;-53
2022/04/16 04:58:59;;;;;;;14.45;5.60;;;;;;;;;;4973869;28;20081;-52
2022/04/16 05:01:26;;;;;;;18.10;6.22;;;;;;;;;;4973281;28;20026;-50
2022/04/16 05:03:52;;;;;;;14.02;6.55;;;;;;;;;;4971893;28;20050;-52
2022/04/16 05:06:18;;;;;;;10.18;6.90;;;;;;;;;;4974189;28;20471;-49
2022/04/16 05:08:44;;;;;;;16.75;7.47;;;;;;;;;;4974267;28;20038;-49
2022/04/16 05:11:11;;;;;;;15.30;7.65;;;;;;;;;;4976171;28;20027;-48
2022/04/16 05:13:37;;;;;;;12.75;7.35;;;;;;;;;;4977553;28;20031;-49
2022/04/16 05:16:03;;;;;;;13.20;7.90;;;;;;;;;;4977756;28;20062;-52
2022/04/16 05:18:29;;;;;;;20.95;8.10;;;;;;;;;;4977441;28;20045;-53
2022/04/16 05:20:56;;;;;;;14.07;7.57;;;;;;;;;;4977931;28;20031;-53
2022/04/16 05:23:22;;;;;;;16.63;8.02;;;;;;;;;;4978222;28;20027;-54
2022/04/16 05:25:48;;;;;;;14.23;7.70;;;;;;;;;;4977307;28;20037;-48
2022/04/16 05:28:15;;;;;;;11.45;7.57;;;;;;;;;;4977364;28;20114;-51
2022/04/16 05:30:54;;;;;;;18.42;6.57;;;;;;;;;;4977196;28;20041;-55
2022/04/16 05:36:06;;;;;;;16.55;7.13;;;;;;;;;;4977088;28;20053;-49
2022/04/16 05:38:32;;;;;;;13.40;6.95;;;;;;;;;;4976390;28;20033;-51
2022/04/16 05:40:59;;;;;;;14.23;7.20;;;;;;;;;;4974879;28;20443;-52
2022/04/16 05:43:25;;;;;;;12.00;6.38;;;;;;;;;;4975855;28;20030;-52
2022/04/16 05:45:52;;;;;;;12.40;7.18;;;;;;;;;;4976984;28;20034;-54
2022/04/16 05:48:18;;;;;;;19.17;8.73;;;;;;;;;;4976885;28;20392;-56
2022/04/16 05:50:45;;;;;;;24.80;8.73;;;;;;;;;;4976397;28;20022;-49
2022/04/16 05:53:13;;;;;;;18.98;8.60;;;;;;;;;;4976741;28;20026;-55
2022/04/16 05:55:40;;;;;;;15.38;7.75;;;;;;;;;;4976326;28;20074;-55
2022/04/16 05:58:07;;;;;;;19.92;7.97;;;;;;;;;;4977102;28;20035;-56
2022/04/16 06:00:33;;;;;;;19.33;7.57;;;;;;;;;;4976596;28;20027;-55
2022/04/16 06:02:59;;;;;;;12.75;7.43;;;;;;;;;;4976698;28;20031;-53
2022/04/16 06:05:27;;;;;;;15.52;8.68;;;;;;;;;;4976221;28;20019;-48
2022/04/16 06:07:54;;;;;;;18.65;8.52;;;;;;;;;;4976361;28;20053;-50
2022/04/16 06:10:20;;;;;;;17.40;8.07;;;;;;;;;;4975981;28;20019;-51
2022/04/16 06:12:47;;;;;;;17.63;7.72;;;;;;;;;;4976296;28;20045;-53
2022/04/16 06:15:13;;;;;;;21.08;9.27;;;;;;;;;;4975921;28;20452;-52
2022/04/16 06:17:39;;;;;;;14.15;8.30;;;;;;;;;;4975796;28;20384;-47
2022/04/16 06:20:07;;;;;;;22.98;9.95;;;;;;;;;;4976521;28;20069;-53
2022/04/16 06:22:33;;;;;;;21.00;8.93;;;;;;;;;;4974554;28;20495;-52
2022/04/16 06:24:59;;;;;;;16.85;7.90;;;;;;;;;;4976217;28;20069;-53
2022/04/16 06:27:25;;;;;;;17.05;8.70;;;;;;;;;;4975211;28;20046;-47
2022/04/16 06:29:51;;;;;;;18.02;8.65;;;;;;;;;;4975771;28;20039;-54
2022/04/16 06:32:18;;;;;;;12.13;7.50;;;;;;;;;;4974489;28;20038;-49
2022/04/16 06:34:44;;;;;;;11.35;6.15;;;;;;;;;;4973599;28;20034;-53
2022/04/16 06:37:10;;;;;;;20.30;6.13;;;;;;;;;;4974048;28;20030;-51
2022/04/16 06:39:36;;;;;;;9.45;5.05;;;;;;;;;;4974271;28;20488;-49
2022/04/16 06:42:02;;;;;;;9.75;5.28;;;;;;;;;;4974101;28;20022;-53
2022/04/16 06:44:29;;;;;;;10.98;5.70;;;;;;;;;;4974420;28;20069;-48
2022/04/16 06:46:55;;;;;;;8.60;4.72;;;;;;;;;;4975234;28;20022;-49
2022/04/16 06:49:21;;;;;;;7.53;4.72;;;;;;;;;;4975332;28;20038;-52
2022/04/16 06:51:48;;;;;;;9.65;5.70;;;;;;;;;;4975550;28;20025;-52
2022/04/16 06:54:14;;;;;;;9.70;5.45;;;;;;;;;;4975440;28;20034;-48
2022/04/16 06:56:40;;;;;;;15.80;5.85;;;;;;;;;;4975493;28;20026;-49
2022/04/16 06:59:06;;;;;;;11.30;5.57;;;;;;;;;;4975867;28;20022;-48
2022/04/16 07:01:32;;;;;;;13.80;5.40;;;;;;;;;;4975776;28;20106;-50
2022/04/16 07:03:58;;;;;;;7.78;5.30;;;;;;;;;;4975512;28;20027;-50
2022/04/16 07:06:24;;;;;;;13.07;5.47;;;;;;;;;;4975958;28;20395;-45
2022/04/16 07:08:50;;;;;;;13.15;6.28;;;;;;;;;;4974320;28;20035;-50
2022/04/16 07:11:16;;;;;;;11.57;6.30;;;;;;;;;;4974198;28;20023;-47
2022/04/16 07:13:43;;;;;;;15.20;6.45;;;;;;;;;;4975274;28;20053;-49
2022/04/16 07:16:09;;;;;;;14.60;5.80;;;;;;;;;;4975445;28;20379;-45
2022/04/16 07:18:35;;;;;;;9.45;6.10;;;;;;;;;;4975260;28;20031;-46
2022/04/16 07:21:01;;;;;;;12.25;7.10;;;;;;;;;;4975475;28;20037;-51
2022/04/16 07:23:27;;;;;;;12.55;6.53;;;;;;;;;;4974859;28;20049;-46
2022/04/16 07:25:53;;;;;;;15.65;6.85;;;;;;;;;;4973139;28;20076;-44
2022/04/16 07:28:22;;;;;;;14.45;6.93;;;;;;;;;;4974893;28;20073;-48
2022/04/16 07:30:49;;;;;;;16.38;7.75;;;;;;;;;;4974774;28;20023;-50
2022/04/16 07:33:15;;;;;;;18.50;9.07;;;;;;;;;;4974898;28;20106;-49
2022/04/16 07:35:41;;;;;;;16.20;8.82;;;;;;;;;;4975312;28;20065;-53
2022/04/16 07:38:07;;;;;;;13.05;9.30;;;;;;;;;;4974966;28;20080;-46
2022/04/16 07:40:34;;;;;;;14.93;10.25;;;;;;;;;;4975045;28;20427;-47
2022/04/16 07:43:01;;;;;;;20.65;11.35;;;;;;;;;;4974891;28;20030;-47
2022/04/16 07:45:31;;;;;;;19.85;13.38;;;;;;;;;;4974849;28;20365;-50
2022/04/16 07:47:57;;;;;;;19.58;13.50;;;;;;;;;;4974505;28;20126;-52
2022/04/16 07:50:23;;;;;;;32.45;18.42;;;;;;;;;;4975298;28;20031;-49
2022/04/16 07:52:49;;;;;;;21.38;13.02;;;;;;;;;;4974840;28;20088;-48
2022/04/16 07:55:16;;;;;;;36.88;18.30;;;;;;;;;;4974853;28;20031;-46
2022/04/16 07:57:42;;;;;;;18.92;12.75;;;;;;;;;;4975076;28;20031;-47
2022/04/16 08:00:10;;;;;;;22.58;13.88;;;;;;;;;;4974536;28;20019;-48
2022/04/16 08:02:36;;;;;;;17.48;11.57;;;;;;;;;;4974894;28;20135;-47
2022/04/16 08:05:03;;;;;;;19.58;12.65;;;;;;;;;;4974625;28;20027;-47
2022/04/16 08:07:30;;;;;;;20.05;13.50;;;;;;;;;;4974949;28;20110;-47
2022/04/16 08:09:56;;;;;;;20.88;13.85;;;;;;;;;;4974726;28;20039;-44
2022/04/16 08:12:22;;;;;;;26.13;14.07;;;;;;;;;;4974598;28;20027;-49
2022/04/16 08:14:49;;;;;;;29.80;18.88;;;;;;;;;;4974590;28;20030;-48
2022/04/16 08:17:15;;;;;;;14.80;10.75;;;;;;;;;;4973446;28;20493;-51
2022/04/16 08:19:41;;;;;;;17.50;11.38;;;;;;;;;;4969945;28;20051;-46
2022/04/16 08:22:10;;;;;;;16.48;11.18;;;;;;;;;;4965276;28;20023;-53
2022/04/16 08:27:04;;;;;;;15.10;12.77;;;;;;;;;;4953278;29;20031;-47
2022/04/16 08:29:30;;;;;;;19.25;12.77;;;;;;;;;;4955130;29;20074;-53
2022/04/16 08:31:56;;;;;;;18.27;12.07;;;;;;;;;;4954749;29;20387;-47
2022/04/16 08:34:22;;;;;;;18.95;13.73;;;;;;;;;;4954994;29;20034;-47
2022/04/16 08:36:49;;;;;;;21.20;15.88;;;;;;;;;;4955179;29;20019;-51
2022/04/16 08:39:16;;;;;;;18.25;11.32;;;;;;;;;;4954145;29;20023;-45
2022/04/16 08:41:42;;;;;;;18.33;12.77;;;;;;;;;;4952236;29;20027;-47
2022/04/16 08:44:10;;;;;;;12.32;10.63;;;;;;;;;;4952300;28;20091;-50
2022/04/16 08:46:36;;;;;;;15.70;11.77;;;;;;;;;;4957709;28;20062;-50
2022/04/16 08:49:02;;;;;;;16.70;11.52;;;;;;;;;;4958455;29;20408;-47
2022/04/16 08:51:30;;;;;;;15.35;12.07;;;;;;;;;;4958570;29;20028;-48
2022/04/16 08:53:56;;;;;;;14.15;10.93;;;;;;;;;;4970737;28;20480;-50
2022/04/16 08:56:23;;;;;;;18.48;12.40;;;;;;;;;;4976971;28;20460;-52
2022/04/16 08:58:49;;;;;;;15.95;11.45;;;;;;;;;;4977489;28;20045;-46
2022/04/16 09:01:16;;;;;;;15.38;10.82;;;;;;;;;;4977284;28;20023;-50
2022/04/16 09:03:48;;;;;;;17.52;11.18;;;;;;;;;;4976499;28;20061;-45
2022/04/16 09:06:21;;;;;;;14.30;10.15;;;;;;;;;;4977348;28;20014;-48
2022/04/16 09:08:47;;;;;;;14.20;10.52;;;;;;;;;;4975560;28;20029;-46
2022/04/16 09:11:14;;;;;;;16.30;10.52;;;;;;;;;;4977683;28;20030;-55
2022/04/16 09:13:41;;;;;;;12.68;10.00;;;;;;;;;;4974652;28;20032;-51
2022/04/16 09:16:07;;;;;;;13.57;9.88;;;;;;;;;;4976876;28;20023;-53
2022/04/16 09:18:47;;;;;;;13.93;10.30;;;;;;;;;;4975788;28;20109;-50
2022/04/16 09:21:13;;;;;;;14.05;10.05;;;;;;;;;;4977270;28;20022;-49
2022/04/16 09:23:47;;;;;;;14.60;10.40;;;;;;;;;;4976784;28;20023;-44
2022/04/16 09:26:13;;;;;;;12.57;9.20;;;;;;;;;;4977206;28;20019;-50
2022/04/16 09:28:44;;;;;;;12.07;10.32;;;;;;;;;;4977151;28;20054;-49
2022/04/16 09:31:11;;;;;;;12.70;9.55;;;;;;;;;;4976461;28;20425;-51
2022/04/16 09:33:38;;;;;;;11.60;9.35;;;;;;;;;;4977044;28;20019;-50
2022/04/16 09:36:04;;;;;;;11.75;9.52;;;;;;;;;;4976747;28;20023;-52
2022/04/16 09:38:35;;;;;;;13.38;9.60;;;;;;;;;;4976608;28;20033;-53
2022/04/16 09:41:01;;;;;;;;;;;;;;;;;;4974372;28;20375;-49
2022/04/16 09:43:34;;;;;;;10.25;9.10;;;;;;;;;;4976596;28;20347;-49
2022/04/16 09:46:10;;;;;;;17.95;9.90;;;;;;;;;;4974952;28;20105;-51
2022/04/16 09:48:36;;;;;;;18.92;9.80;;;;;;;;;;4976850;28;20043;-51
2022/04/16 09:51:04;;;;;;;14.32;9.45;;;;;;;;;;4976465;28;20122;-51
2022/04/16 09:53:30;;;;;;;10.45;9.35;;;;;;;;;;4976785;28;20022;-52
2022/04/16 09:55:57;;;;;;;11.20;9.90;;;;;;;;;;4973403;28;20017;-51
2022/04/16 09:58:28;;;;;;;12.23;9.05;;;;;;;;;;4975780;28;20395;-48
2022/04/16 10:00:54;;;;;;;11.55;8.68;;;;;;;;;;4976576;28;20019;-54
2022/04/16 10:03:22;;;;;;;11.27;9.95;;;;;;;;;;4976356;28;20025;-54
2022/04/16 10:05:49;;;;;;;14.85;10.55;;;;;;;;;;4967218;28;20019;-51
2022/04/16 10:08:16;;;;;;;12.32;10.68;;;;;;;;;;4957034;29;20107;-58
2022/04/16 10:10:46;;;;;;;16.85;11.48;;;;;;;;;;4969173;28;20023;-54
2022/04/16 10:13:15;;;;;;;13.60;10.63;;;;;;;;;;4976525;28;20364;-56
2022/04/16 10:15:45;;;;;;;14.75;11.02;;;;;;;;;;4976391;28;20035;-53
2022/04/16 10:18:21;;;;;;;10.82;9.73;;;;;;;;;;4975907;28;20027;-52
2022/04/16 10:21:04;;;;;;;11.82;10.45;;;;;;;;;;4975213;28;20031;-55
2022/04/16 10:23:39;;;;;;;10.93;9.77;;;;;;;;;;4975207;28;20109;-52
2022/04/16 10:26:10;;;;;;;11.95;10.25;;;;;;;;;;4955878;28;20046;-49
2022/04/16 10:28:38;;;;;;;13.60;10.35;;;;;;;;;;4955202;28;20039;-48
2022/04/16 10:31:05;;;;;;;11.70;9.95;;;;;;;;;;4958489;28;20720;-47
2022/04/16 10:33:31;;;;;;;14.27;11.20;;;;;;;;;;4972946;28;20435;-50
2022/04/16 10:36:01;;;;;;;13.23;10.75;;;;;;;;;;4975022;28;20026;-49
2022/04/16 10:38:34;;;;;;;11.40;9.98;;;;;;;;;;4975793;28;20356;-49
2022/04/16 10:41:02;;;;;;;10.93;9.45;;;;;;;;;;4974850;28;20026;-50
2022/04/16 10:43:34;;;;;;;11.73;9.93;;;;;;;;;;4975546;28;20061;-53
2022/04/16 10:46:14;;;;;;;12.00;9.70;;;;;;;;;;4974377;28;20023;-54
2022/04/16 10:48:41;;;;;;;12.05;8.30;;;;;;;;;;4975392;28;20047;-50
2022/04/16 10:51:07;;;;;;;11.35;8.70;;;;;;;;;;4975515;28;20143;-48
2022/04/16 10:53:35;;;;;;;12.98;7.35;;;;;;;;;;4974477;28;20309;-48
2022/04/16 10:56:07;;;;;;;11.23;7.43;;;;;;;;;;4973282;28;20033;-49
2022/04/16 10:58:33;;;;;;;10.50;6.05;;;;;;;;;;4974063;28;20110;-52
2022/04/16 11:01:12;;;;;;;8.90;5.38;;;;;;;;;;4974373;28;20034;-51
2022/04/16 11:03:48;;;;;;;6.88;4.72;;;;;;;;;;4975402;28;20055;-49
2022/04/16 11:06:15;;;;;;;9.20;5.75;;;;;;;;;;4974625;28;20027;-53
2022/04/16 11:08:42;;;;;;;10.20;5.65;;;;;;;;;;4972101;28;20037;-51
2022/04/16 11:11:09;;;;;;;6.55;4.45;;;;;;;;;;4974457;28;20013;-51
2022/04/16 11:13:36;;;;;;;7.35;4.45;;;;;;;;;;4974769;28;20026;-46
2022/04/16 11:16:03;;;;;;;5.07;3.97;;;;;;;;;;4974153;28;20439;-52
2022/04/16 11:18:45;;;;;;;7.43;5.28;;;;;;;;;;4974495;28;20486;-48
2022/04/16 11:21:25;;;;;;;9.57;5.63;;;;;;;;;;4973107;28;20471;-52
2022/04/16 11:23:53;;;;;;;9.57;5.33;;;;;;;;;;4974613;28;20531;-48
2022/04/16 11:34:41;;;;;;;8.82;5.68;;;;;;;;;;4974096;28;20057;-48
2022/04/16 11:37:08;;;;;;;9.98;6.03;;;;;;;;;;4974214;28;20460;-46
2022/04/16 11:39:34;;;;;;;9.40;6.60;;;;;;;;;;4974472;28;20069;-47
2022/04/16 11:42:02;;;;;;;13.80;6.43;;;;;;;;;;4973809;28;20049;-48
2022/04/16 11:44:38;;;;;;;10.45;7.00;;;;;;;;;;4974238;28;20031;-49
2022/04/16 11:47:14;;;;;;;10.48;6.13;;;;;;;;;;4971942;28;20455;-47
2022/04/16 11:49:42;;;;;;;10.50;5.40;;;;;;;;;;4974046;28;20037;-52
2022/04/16 11:52:09;;;;;;;8.30;5.28;;;;;;;;;;4974167;28;20018;-48
2022/04/16 11:54:35;;;;;;;8.15;5.22;;;;;;;;;;4973921;28;20648;-50
2022/04/16 11:57:01;;;;;;;10.38;5.50;;;;;;;;;;4973283;28;20030;-49
2022/04/16 11:59:28;;;;;;;8.00;4.90;;;;;;;;;;4974183;28;20387;-47
2022/04/16 12:01:58;;;;;;;7.78;4.95;;;;;;;;;;4974505;28;20019;-52
2022/04/16 12:04:37;;;;;;;9.40;6.05;;;;;;;;;;4972397;28;20094;-47
2022/04/16 12:07:03;;;;;;;13.48;7.32;;;;;;;;;;4972408;28;20031;-48
2022/04/16 12:09:37;;;;;;;15.18;7.97;;;;;;;;;;4974035;28;20557;-47
2022/04/16 12:12:05;;;;;;;10.25;5.85;;;;;;;;;;4973252;28;20025;-53
2022/04/16 12:14:31;;;;;;;13.75;6.50;;;;;;;;;;4973666;28;20492;-47
2022/04/16 12:17:01;;;;;;;6.65;5.00;;;;;;;;;;4974736;28;20023;-49
2022/04/16 12:19:45;;;;;;;9.30;4.95;;;;;;;;;;4974455;28;20530;-54
2022/04/16 12:22:16;;;;;;;13.40;6.28;;;;;;;;;;4978753;28;20411;-53
2022/04/16 12:24:42;;;;;;;7.18;4.90;;;;;;;;;;4978510;28;20019;-48
2022/04/16 12:27:08;;;;;;;9.00;5.43;;;;;;;;;;4978095;28;20612;-53
2022/04/16 12:29:34;;;;;;;7.38;4.75;;;;;;;;;;4977776;28;20166;-45
2022/04/16 12:32:00;;;;;;;7.32;4.45;;;;;;;;;;4977587;28;20077;-48
2022/04/16 12:34:27;;;;;;;9.18;5.22;;;;;;;;;;4977930;28;20031;-49
2022/04/16 12:36:53;;;;;;;7.40;5.38;;;;;;;;;;4978031;28;20027;-49
2022/04/16 12:39:20;;;;;;;7.88;5.30;;;;;;;;;;4978135;28;20375;-48
2022/04/16 12:41:46;;;;;;;10.57;4.72;;;;;;;;;;4978142;28;20022;-51
2022/04/16 12:44:12;;;;;;;11.90;4.75;;;;;;;;;;4978314;28;20070;-47
2022/04/16 12:46:39;;;;;;;5.85;4.13;;;;;;;;;;4977905;28;20053;-50
2022/04/16 12:49:05;;;;;;;6.63;4.20;;;;;;;;;;4977711;28;20074;-48
2022/04/16 12:51:31;;;;;;;6.32;4.53;;;;;;;;;;4977927;28;20019;-46
2022/04/16 12:53:57;;;;;;;9.48;5.43;;;;;;;;;;4977099;28;20375;-52
2022/04/16 12:56:30;;;;;;;9.25;4.28;;;;;;;;;;4977947;28;20029;-54
2022/04/16 12:58:58;;;;;;;6.93;4.15;;;;;;;;;;4977199;28;20027;-49
2022/04/16 13:01:26;;;;;;;8.30;5.63;;;;;;;;;;4975524;28;20027;-58
2022/04/16 13:04:03;;;;;;;10.07;5.82;;;;;;;;;;4976488;28;20022;-54
2022/04/16 13:06:41;;;;;;;;;;;;;;;;;;;;;
2022/04/16 13:09:07;;;;;;;9.98;5.05;;;;;;;;;;4973838;28;20037;-51
2022/04/16 13:11:37;;;;;;;8.70;5.53;;;;;;;;;;4976371;28;20038;-50
2022/04/16 13:14:11;;;;;;;6.63;4.53;;;;;;;;;;4975953;28;20034;-53
2022/04/16 13:16:48;;;;;;;9.55;6.13;;;;;;;;;;4976610;28;20027;-53
2022/04/16 13:19:24;;;;;;;9.27;5.38;;;;;;;;;;4974626;28;20073;-50
2022/04/16 13:22:00;;;;;;;9.20;6.55;;;;;;;;;;4973104;28;20058;-50
2022/04/16 13:24:28;;;;;;;9.32;4.80;;;;;;;;;;4974600;28;20521;-51
2022/04/16 13:27:07;;;;;;;7.68;6.15;;;;;;;;;;4975098;28;20052;-53
2022/04/16 13:29:34;;;;;;;10.35;5.13;;;;;;;;;;4962723;28;20027;-47
2022/04/16 13:32:00;;;;;;;12.25;6.65;;;;;;;;;;4975255;28;20028;-49
2022/04/16 13:34:26;;;;;;;11.32;7.97;;;;;;;;;;4975135;28;20690;-50
2022/04/16 13:36:52;;;;;;;9.82;6.75;;;;;;;;;;4976987;28;20027;-50
2022/04/16 13:42:03;;;;;;;12.43;6.63;;;;;;;;;;4976306;28;20510;-49
2022/04/16 13:44:29;;;;;;;17.30;10.25;;;;;;;;;;4977225;28;20026;-49
2022/04/16 13:46:56;;;;;;;14.10;6.55;;;;;;;;;;4976763;28;20029;-48
2022/04/16 13:49:22;;;;;;;12.07;7.10;;;;;;;;;;4977125;28;20035;-47
2022/04/16 13:51:48;;;;;;;9.80;6.53;;;;;;;;;;4977047;28;20031;-48
2022/04/16 13:54:14;;;;;;;8.35;6.05;;;;;;;;;;4976762;28;20015;-47
2022/04/16 13:56:41;;;;;;;12.05;6.78;;;;;;;;;;4976456;28;20019;-51
2022/04/16 13:59:07;;;;;;;10.05;6.10;;;;;;;;;;4977126;28;20034;-46
2022/04/16 14:01:36;;;;;;;10.43;6.35;;;;;;;;;;4976873;28;20082;-46
2022/04/16 14:04:03;;;;;;;7.38;5.05;;;;;;;;;;4976299;28;20022;-47
2022/04/16 14:06:29;;;;;;;8.18;5.13;;;;;;;;;;4976710;28;20022;-49
2022/04/16 14:08:56;;;;;;;8.13;5.97;;;;;;;;;;4976801;28;20077;-45
2022/04/16 14:11:23;;;;;;;7.40;5.70;;;;;;;;;;4976854;28;20023;-49
2022/04/16 14:13:50;;;;;;;7.38;5.55;;;;;;;;;;4976457;28;20058;-54
2022/04/16 14:16:17;;;;;;;8.85;5.20;;;;;;;;;;4976409;28;20034;-49
2022/04/16 14:18:43;;;;;;;7.68;5.60;;;;;;;;;;4975529;28;20030;-48
2022/04/16 14:23:52;;;;;;;6.75;5.20;;;;;;;;;;4974248;28;20134;-52
2022/04/16 14:26:18;;;;;;;6.47;4.97;;;;;;;;;;4974134;28;20419;-47
2022/04/16 14:28:44;;;;;;;8.70;5.15;;;;;;;;;;4974527;28;20034;-52
2022/04/16 14:31:11;;;;;;;7.18;4.90;;;;;;;;;;4974339;28;20468;-52
2022/04/16 14:33:38;;;;;;;5.70;4.88;;;;;;;;;;4975302;28;20015;-48
2022/04/16 14:36:07;;;;;;;7.45;5.70;;;;;;;;;;4975852;28;20023;-50
2022/04/16 14:38:42;;;;;;;10.02;6.10;;;;;;;;;;4972638;28;20476;-49
2022/04/16 14:41:13;;;;;;;13.98;6.80;;;;;;;;;;4974712;28;20035;-48
2022/04/16 14:43:43;;;;;;;11.75;7.05;;;;;;;;;;4974904;28;20034;-52
2022/04/16 14:46:10;;;;;;;7.97;5.72;;;;;;;;;;4975388;28;20022;-52
2022/04/16 14:48:36;;;;;;;11.35;6.07;;;;;;;;;;4975788;28;20062;-51
2022/04/16 14:51:02;;;;;;;10.85;6.20;;;;;;;;;;4976012;28;20022;-52
2022/04/16 14:53:30;;;;;;;10.05;6.40;;;;;;;;;;4975318;28;20018;-51
2022/04/16 14:56:07;;;;;;;8.63;5.78;;;;;;;;;;4975425;28;20078;-52
2022/04/16 14:58:33;;;;;;;10.25;6.80;;;;;;;;;;4974340;28;20054;-49
2022/04/16 15:01:00;;;;;;;11.93;7.53;;;;;;;;;;4975687;28;20023;-48
2022/04/16 15:03:32;;;;;;;12.35;7.40;;;;;;;;;;4975257;28;20105;-46
2022/04/16 15:06:00;;;;;;;8.98;6.93;;;;;;;;;;4975236;28;20023;-50